createdAt,value
2022-09-14T00:02:08.397Z,29.80
2022-09-14T00:04:40.290Z,29.70
2022-09-14T00:07:11.782Z,29.70
2022-09-14T00:09:41.835Z,29.70
2022-09-14T00:12:13.713Z,29.70
2022-09-14T00:14:43.842Z,29.70
2022-09-14T00:17:14.715Z,29.50
2022-09-14T00:19:46.249Z,29.50
2022-09-14T00:22:16.780Z,29.50
2022-09-14T00:24:49.377Z,29.40
2022-09-14T00:27:19.691Z,29.50
2022-09-14T00:29:52.230Z,29.40
2022-09-14T00:32:23.570Z,29.40
2022-09-14T00:34:54.371Z,29.40
2022-09-14T00:37:24.716Z,29.30
2022-09-14T00:39:56.431Z,29.30
2022-09-14T00:42:27.676Z,29.30
2022-09-14T00:45:04.933Z,29.20
2022-09-14T00:47:34.961Z,29.10
2022-09-14T00:50:07.053Z,29.10
2022-09-14T00:52:40.198Z,29.10
2022-09-14T00:55:17.717Z,29.10
2022-09-14T00:57:53.698Z,29.00
2022-09-14T01:00:27.124Z,29.00
2022-09-14T01:03:01.366Z,28.90
2022-09-14T01:05:59.664Z,28.90
2022-09-14T01:08:45.957Z,28.80
2022-09-14T01:11:27.201Z,28.80
2022-09-14T01:14:15.589Z,28.70
2022-09-14T01:17:03.646Z,28.70
2022-09-14T01:19:43.013Z,28.80
2022-09-14T01:22:24.028Z,28.80
2022-09-14T01:25:08.395Z,28.70
2022-09-14T01:27:46.257Z,28.60
2022-09-14T01:30:24.074Z,28.60
2022-09-14T01:33:06.057Z,28.50
2022-09-14T01:35:52.674Z,28.50
2022-09-14T01:38:34.692Z,28.50
2022-09-14T01:41:12.187Z,28.50
2022-09-14T01:44:08.647Z,28.50
2022-09-14T01:46:49.163Z,28.50
2022-09-14T01:49:29.218Z,28.30
2022-09-14T01:52:08.450Z,28.40
2022-09-14T01:54:58.817Z,28.30
2022-09-14T01:57:41.002Z,28.30
2022-09-14T02:00:17.833Z,28.30
2022-09-14T02:03:14.784Z,28.20
2022-09-14T02:06:00.825Z,28.20
2022-09-14T02:08:34.371Z,28.10
2022-09-14T02:11:08.203Z,28.10
2022-09-14T02:13:40.795Z,28.10
2022-09-14T02:16:12.315Z,28.00
2022-09-14T02:18:44.925Z,28.00
2022-09-14T02:21:37.146Z,28.00
2022-09-14T02:24:07.772Z,27.90
2022-09-14T02:26:40.345Z,27.90
2022-09-14T02:29:14.129Z,27.90
2022-09-14T02:32:02.826Z,27.90
2022-09-14T02:34:36.856Z,27.80
2022-09-14T02:37:37.535Z,27.80
2022-09-14T02:40:25.314Z,27.70
2022-09-14T02:43:12.693Z,27.80
2022-09-14T02:46:02.579Z,27.80
2022-09-14T02:49:00.191Z,27.70
2022-09-14T02:51:44.662Z,27.60
2022-09-14T02:54:42.974Z,27.60
2022-09-14T02:57:13.271Z,27.50
2022-09-14T02:59:43.784Z,27.50
2022-09-14T03:02:14.412Z,27.50
2022-09-14T03:04:47.020Z,27.50
2022-09-14T03:07:17.864Z,27.40
2022-09-14T03:09:48.428Z,27.40
2022-09-14T03:12:20.263Z,27.40
2022-09-14T03:14:51.248Z,27.40
2022-09-14T03:17:22.269Z,27.40
2022-09-14T03:19:53.080Z,27.30
2022-09-14T03:22:24.885Z,27.30
2022-09-14T03:24:54.196Z,27.30
2022-09-14T03:27:25.266Z,27.30
2022-09-14T03:29:55.956Z,27.30
2022-09-14T03:32:27.536Z,27.20
2022-09-14T03:34:58.578Z,27.20
2022-09-14T03:37:28.926Z,27.10
2022-09-14T03:40:01.450Z,27.10
2022-09-14T03:42:34.817Z,27.10
2022-09-14T03:45:05.801Z,27.10
2022-09-14T03:47:36.676Z,27.10
2022-09-14T03:50:10.098Z,27.00
2022-09-14T03:52:41.229Z,27.00
2022-09-14T03:55:13.128Z,27.00
2022-09-14T03:57:46.597Z,26.90
2022-09-14T04:00:16.624Z,26.80
2022-09-14T04:02:49.426Z,26.90
2022-09-14T04:05:24.859Z,26.80
2022-09-14T04:07:54.083Z,26.80
2022-09-14T04:10:24.233Z,26.80
2022-09-14T04:12:56.022Z,26.70
2022-09-14T04:15:26.841Z,26.80
2022-09-14T04:17:57.769Z,26.70
2022-09-14T04:20:29.449Z,26.70
2022-09-14T04:23:00.068Z,26.60
2022-09-14T04:25:32.754Z,26.60
2022-09-14T04:28:21.848Z,26.50
2022-09-14T04:31:04.467Z,26.60
2022-09-14T04:33:36.642Z,26.40
2022-09-14T04:36:13.272Z,26.30
2022-09-14T04:38:44.597Z,26.20
2022-09-14T04:41:19.391Z,26.10
2022-09-14T04:43:52.576Z,26.00
2022-09-14T04:46:34.173Z,25.90
2022-09-14T04:49:04.727Z,25.80
2022-09-14T04:51:39.502Z,25.70
2022-09-14T04:54:17.474Z,25.60
2022-09-14T04:56:50.581Z,25.70
2022-09-14T04:59:20.696Z,25.70
2022-09-14T05:01:52.703Z,25.60
2022-09-14T05:04:23.445Z,25.60
2022-09-14T05:06:55.171Z,25.50
2022-09-14T05:09:29.645Z,25.50
2022-09-14T05:11:59.486Z,25.40
2022-09-14T05:14:31.690Z,25.40
2022-09-14T05:17:04.211Z,25.50
2022-09-14T05:19:41.149Z,25.50
2022-09-14T05:22:11.945Z,25.60
2022-09-14T05:24:42.169Z,25.70
2022-09-14T05:27:12.638Z,25.70
2022-09-14T05:29:43.572Z,25.50
2022-09-14T05:32:13.985Z,25.30
2022-09-14T05:34:46.363Z,25.20
2022-09-14T05:37:18.885Z,25.20
2022-09-14T05:39:53.889Z,25.30
2022-09-14T05:42:25.629Z,25.20
2022-09-14T05:45:05.086Z,25.20
2022-09-14T05:47:39.212Z,25.10
2022-09-14T05:50:10.473Z,25.10
2022-09-14T05:52:40.418Z,25.10
2022-09-14T05:55:13.264Z,25.00
2022-09-14T05:57:44.318Z,25.10
2022-09-14T06:00:16.246Z,25.00
2022-09-14T06:02:52.251Z,25.00
2022-09-14T06:05:23.266Z,25.00
2022-09-14T06:07:55.745Z,25.00
2022-09-14T06:10:28.645Z,25.00
2022-09-14T06:13:01.249Z,24.80
2022-09-14T06:15:32.717Z,24.80
2022-09-14T06:18:03.209Z,24.80
2022-09-14T06:20:33.427Z,24.80
2022-09-14T06:23:04.218Z,24.80
2022-09-14T06:25:34.785Z,24.70
2022-09-14T06:28:05.872Z,24.70
2022-09-14T06:30:38.121Z,24.70
2022-09-14T06:33:09.781Z,24.70
2022-09-14T06:35:42.291Z,24.70
2022-09-14T06:38:13.157Z,24.70
2022-09-14T06:40:53.234Z,24.70
2022-09-14T06:43:23.692Z,24.70
2022-09-14T06:46:09.563Z,24.60
2022-09-14T06:48:42.612Z,24.60
2022-09-14T06:51:28.417Z,24.40
2022-09-14T06:54:01.391Z,24.40
2022-09-14T06:56:35.029Z,24.40
2022-09-14T06:59:06.490Z,24.40
2022-09-14T07:01:38.559Z,24.40
2022-09-14T07:04:11.533Z,24.30
2022-09-14T07:06:46.264Z,24.30
2022-09-14T07:09:19.080Z,24.30
2022-09-14T07:11:51.236Z,24.30
2022-09-14T07:14:21.465Z,24.30
2022-09-14T07:16:52.840Z,24.20
2022-09-14T07:19:26.101Z,24.30
2022-09-14T07:21:59.872Z,24.20
2022-09-14T07:24:30.086Z,24.20
2022-09-14T07:27:07.363Z,24.20
2022-09-14T07:29:37.307Z,24.20
2022-09-14T07:32:08.191Z,24.20
2022-09-14T07:34:39.227Z,24.20
2022-09-14T07:37:09.693Z,24.30
2022-09-14T07:39:40.705Z,24.10
2022-09-14T07:42:10.589Z,24.10
2022-09-14T07:44:41.828Z,24.00
2022-09-14T07:47:13.897Z,23.90
2022-09-14T07:49:47.669Z,23.90
2022-09-14T07:52:20.800Z,23.90
2022-09-14T07:54:50.625Z,24.00
2022-09-14T07:57:39.504Z,23.90
2022-09-14T08:00:13.778Z,23.90
2022-09-14T08:02:44.657Z,23.90
2022-09-14T08:05:17.624Z,23.80
2022-09-14T08:07:49.029Z,23.80
2022-09-14T08:10:22.879Z,23.70
2022-09-14T08:12:57.756Z,23.70
2022-09-14T08:15:28.800Z,23.70
2022-09-14T08:18:01.121Z,23.90
2022-09-14T08:20:31.917Z,23.90
2022-09-14T08:23:03.517Z,23.90
2022-09-14T08:25:34.586Z,23.70
2022-09-14T08:28:07.257Z,23.50
2022-09-14T08:30:38.897Z,23.60
2022-09-14T08:33:11.976Z,23.60
2022-09-14T08:35:57.824Z,23.60
2022-09-14T08:38:28.686Z,23.70
2022-09-14T08:41:05.441Z,23.60
2022-09-14T08:43:35.144Z,23.60
2022-09-14T08:46:10.493Z,23.50
2022-09-14T08:48:47.663Z,23.50
2022-09-14T08:51:20.649Z,23.50
2022-09-14T08:53:54.938Z,23.50
2022-09-14T08:56:35.138Z,23.50
2022-09-14T08:59:07.236Z,23.40
2022-09-14T09:02:04.686Z,23.40
2022-09-14T09:04:40.662Z,23.40
2022-09-14T09:07:31.526Z,23.40
2022-09-14T09:10:02.580Z,23.40
2022-09-14T09:12:43.879Z,23.40
2022-09-14T09:15:26.869Z,23.40
2022-09-14T09:18:08.663Z,23.30
2022-09-14T09:20:46.907Z,23.20
2022-09-14T09:23:19.588Z,23.20
2022-09-14T09:25:49.108Z,23.30
2022-09-14T09:28:24.125Z,23.20
2022-09-14T09:31:02.455Z,23.10
2022-09-14T09:33:52.711Z,23.10
2022-09-14T09:36:35.247Z,23.20
2022-09-14T09:39:06.692Z,23.20
2022-09-14T09:42:11.540Z,23.40
2022-09-14T09:45:04.419Z,23.20
2022-09-14T09:47:38.860Z,23.20
2022-09-14T09:50:26.535Z,23.20
2022-09-14T09:53:06.698Z,23.00
2022-09-14T09:55:40.888Z,23.00
2022-09-14T09:58:45.415Z,23.00
2022-09-14T10:01:29.755Z,22.90
2022-09-14T10:04:17.986Z,22.90
2022-09-14T10:06:57.512Z,22.90
2022-09-14T10:09:32.063Z,22.90
2022-09-14T10:12:05.717Z,22.80
2022-09-14T10:14:41.757Z,22.80
2022-09-14T10:17:24.658Z,22.80
2022-09-14T10:19:57.205Z,22.70
2022-09-14T10:22:35.591Z,22.70
2022-09-14T10:25:15.475Z,22.70
2022-09-14T10:27:57.098Z,22.70
2022-09-14T10:30:50.706Z,22.80
2022-09-14T10:33:21.662Z,22.90
2022-09-14T10:36:04.282Z,22.70
2022-09-14T10:39:00.363Z,22.60
2022-09-14T10:41:48.238Z,22.70
2022-09-14T10:44:26.659Z,22.70
2022-09-14T10:47:19.404Z,22.70
2022-09-14T10:50:23.943Z,22.60
2022-09-14T10:53:13.235Z,22.70
2022-09-14T10:55:45.113Z,22.50
2022-09-14T10:58:33.548Z,22.50
2022-09-14T11:01:21.814Z,22.50
2022-09-14T11:04:08.270Z,22.60
2022-09-14T11:07:11.531Z,22.60
2022-09-14T11:10:01.236Z,22.60
2022-09-14T11:12:32.382Z,22.50
2022-09-14T11:15:20.108Z,22.60
2022-09-14T11:18:39.891Z,22.60
2022-09-14T11:21:19.392Z,22.60
2022-09-14T11:24:01.432Z,22.60
2022-09-14T11:26:56.149Z,22.50
2022-09-14T11:30:05.561Z,22.50
2022-09-14T11:32:54.623Z,22.40
2022-09-14T11:35:31.386Z,22.50
2022-09-14T11:38:05.273Z,22.50
2022-09-14T11:41:11.965Z,22.60
2022-09-14T11:44:01.695Z,22.50
2022-09-14T11:47:15.779Z,22.40
2022-09-14T11:50:09.783Z,22.30
2022-09-14T11:52:42.981Z,22.40
2022-09-14T11:55:20.071Z,22.30
2022-09-14T11:57:50.942Z,22.30
2022-09-14T12:00:28.250Z,22.30
2022-09-14T12:03:25.472Z,22.30
2022-09-14T12:05:58.012Z,22.30
2022-09-14T12:08:31.668Z,22.20
2022-09-14T12:11:11.012Z,22.20
2022-09-14T12:13:43.619Z,22.20
2022-09-14T12:16:14.535Z,22.30
2022-09-14T12:18:48.192Z,22.30
2022-09-14T12:21:25.045Z,22.20
2022-09-14T12:24:00.641Z,22.30
2022-09-14T12:26:34.521Z,22.20
2022-09-14T12:29:09.688Z,22.20
2022-09-14T12:31:50.963Z,22.30
2022-09-14T12:34:27.243Z,22.30
2022-09-14T12:36:59.209Z,22.30
2022-09-14T12:39:36.348Z,22.40
2022-09-14T12:42:35.105Z,22.30
2022-09-14T12:45:56.936Z,22.30
2022-09-14T12:48:48.937Z,22.30
2022-09-14T12:51:34.123Z,22.40
2022-09-14T12:54:11.746Z,22.50
2022-09-14T12:57:10.240Z,22.70
2022-09-14T13:00:05.979Z,22.70
2022-09-14T13:03:07.310Z,22.70
2022-09-14T13:05:37.246Z,23.00
2022-09-14T13:08:20.065Z,23.00
2022-09-14T13:10:55.167Z,23.00
2022-09-14T13:13:33.369Z,23.20
2022-09-14T13:16:07.535Z,23.30
2022-09-14T13:18:41.218Z,23.30
2022-09-14T13:21:26.120Z,23.30
2022-09-14T13:23:56.813Z,23.30
2022-09-14T13:26:30.513Z,23.30
2022-09-14T13:29:02.577Z,23.30
2022-09-14T13:31:38.306Z,23.40
2022-09-14T13:34:08.290Z,23.50
2022-09-14T13:36:46.610Z,23.50
2022-09-14T13:39:27.047Z,23.60
2022-09-14T13:42:01.831Z,23.70
2022-09-14T13:44:46.645Z,23.70
2022-09-14T13:47:22.857Z,23.80
2022-09-14T13:49:57.667Z,23.70
2022-09-14T13:52:56.975Z,23.80
2022-09-14T13:55:25.349Z,23.90
2022-09-14T13:58:16.142Z,24.00
2022-09-14T14:01:02.002Z,24.10
2022-09-14T14:03:32.186Z,24.20
2022-09-14T14:06:26.881Z,24.20
2022-09-14T14:08:58.824Z,24.30
2022-09-14T14:11:33.566Z,24.30
2022-09-14T14:14:30.856Z,24.30
2022-09-14T14:17:29.543Z,24.30
2022-09-14T14:20:01.536Z,24.40
2022-09-14T14:22:40.068Z,24.50
2022-09-14T14:25:36.237Z,24.60
2022-09-14T14:28:20.181Z,24.70
2022-09-14T14:30:50.000Z,24.70
2022-09-14T14:33:23.753Z,24.70
2022-09-14T14:35:55.894Z,24.70
2022-09-14T14:38:29.965Z,24.70
2022-09-14T14:41:00.470Z,24.70
2022-09-14T14:43:32.501Z,24.60
2022-09-14T14:46:03.076Z,24.60
2022-09-14T14:48:33.131Z,24.60
2022-09-14T14:51:04.062Z,24.60
2022-09-14T14:53:33.956Z,24.60
2022-09-14T14:56:05.773Z,24.60
2022-09-14T14:58:39.506Z,24.60
2022-09-14T15:01:10.915Z,24.60
2022-09-14T15:03:42.152Z,24.70
2022-09-14T15:06:24.757Z,24.70
2022-09-14T15:08:58.329Z,24.70
2022-09-14T15:11:29.524Z,24.70
2022-09-14T15:14:01.616Z,24.70
2022-09-14T15:16:31.849Z,24.80
2022-09-14T15:19:02.381Z,24.90
2022-09-14T15:21:33.197Z,25.00
2022-09-14T15:24:02.969Z,25.00
2022-09-14T15:26:36.099Z,25.10
2022-09-14T15:29:10.625Z,25.40
2022-09-14T15:31:42.897Z,25.60
2022-09-14T15:34:12.636Z,25.70
2022-09-14T15:36:53.375Z,25.80
2022-09-14T15:39:31.670Z,25.70
2022-09-14T15:42:03.022Z,25.80
2022-09-14T15:44:36.240Z,25.90
2022-09-14T15:47:09.637Z,26.10
2022-09-14T15:49:41.887Z,26.10
2022-09-14T15:52:13.961Z,26.20
2022-09-14T15:54:47.202Z,26.40
2022-09-14T15:57:17.990Z,26.20
2022-09-14T15:59:48.998Z,26.30
2022-09-14T16:02:21.904Z,26.50
2022-09-14T16:04:53.357Z,26.60
2022-09-14T16:07:25.676Z,26.50
2022-09-14T16:09:58.979Z,26.40
2022-09-14T16:12:32.317Z,26.20
2022-09-14T16:15:04.138Z,26.10
2022-09-14T16:17:34.604Z,26.30
2022-09-14T16:20:11.506Z,26.50
2022-09-14T16:22:40.867Z,26.60
2022-09-14T16:25:12.507Z,26.60
2022-09-14T16:27:43.548Z,26.60
2022-09-14T16:30:15.644Z,26.60
2022-09-14T16:32:47.023Z,26.70
2022-09-14T16:35:17.467Z,26.90
2022-09-14T16:37:46.965Z,26.70
2022-09-14T16:40:17.612Z,26.70
2022-09-14T16:42:52.960Z,26.80
2022-09-14T16:45:23.069Z,26.80
2022-09-14T16:47:55.143Z,26.60
2022-09-14T16:50:27.947Z,26.60
2022-09-14T16:53:01.791Z,26.80
2022-09-14T16:55:34.534Z,26.90
2022-09-14T16:58:06.953Z,27.10
2022-09-14T17:00:44.052Z,27.20
2022-09-14T17:03:15.592Z,27.20
2022-09-14T17:05:47.157Z,27.20
2022-09-14T17:08:19.755Z,27.40
2022-09-14T17:10:54.573Z,27.40
2022-09-14T17:13:28.209Z,27.50
2022-09-14T17:16:13.784Z,27.70
2022-09-14T17:18:50.918Z,27.80
2022-09-14T17:21:24.181Z,27.70
2022-09-14T17:23:55.559Z,27.70
2022-09-14T17:26:27.919Z,27.30
2022-09-14T17:28:59.771Z,27.30
2022-09-14T17:31:34.722Z,27.20
2022-09-14T17:34:06.181Z,27.20
2022-09-14T17:36:39.546Z,27.40
2022-09-14T17:39:12.953Z,27.50
2022-09-14T17:41:45.642Z,27.50
2022-09-14T17:44:17.285Z,27.60
2022-09-14T17:46:53.111Z,27.70
2022-09-14T17:49:25.993Z,27.70
2022-09-14T17:51:56.683Z,27.90
2022-09-14T17:54:32.316Z,27.60
2022-09-14T17:57:02.587Z,27.70
2022-09-14T17:59:33.477Z,27.90
2022-09-14T18:02:06.582Z,27.90
2022-09-14T18:04:39.028Z,28.20
2022-09-14T18:07:11.992Z,28.40
2022-09-14T18:09:42.590Z,28.40
2022-09-14T18:12:17.111Z,28.40
2022-09-14T18:14:48.433Z,28.50
2022-09-14T18:17:18.553Z,28.50
2022-09-14T18:19:48.732Z,28.50
2022-09-14T18:22:19.985Z,28.60
2022-09-14T18:24:51.055Z,28.30
2022-09-14T18:27:23.343Z,28.10
2022-09-14T18:29:54.323Z,28.30
2022-09-14T18:32:25.060Z,28.70
2022-09-14T18:34:56.641Z,28.70
2022-09-14T18:37:25.856Z,28.60
2022-09-14T18:39:57.015Z,28.40
2022-09-14T18:42:29.120Z,28.50
2022-09-14T18:44:58.853Z,28.50
2022-09-14T18:47:33.896Z,28.60
2022-09-14T18:50:03.641Z,28.60
2022-09-14T18:52:34.441Z,28.50
2022-09-14T18:55:06.733Z,28.60
2022-09-14T18:57:36.988Z,28.70
2022-09-14T19:00:08.473Z,28.90
2022-09-14T19:02:40.048Z,28.80
2022-09-14T19:05:12.934Z,28.70
2022-09-14T19:07:43.083Z,28.70
2022-09-14T19:10:14.444Z,28.60
2022-09-14T19:12:45.805Z,28.80
2022-09-14T19:15:17.189Z,28.90
2022-09-14T19:17:51.082Z,28.90
2022-09-14T19:20:23.662Z,29.00
2022-09-14T19:22:54.524Z,29.20
2022-09-14T19:25:25.919Z,29.50
2022-09-14T19:27:55.586Z,29.50
2022-09-14T19:30:28.452Z,29.40
2022-09-14T19:32:58.418Z,29.20
2022-09-14T19:35:30.516Z,29.40
2022-09-14T19:38:00.112Z,29.60
2022-09-14T19:40:31.644Z,29.50
2022-09-14T19:43:02.939Z,29.70
2022-09-14T19:45:35.156Z,29.60
2022-09-14T19:48:06.508Z,29.50
2022-09-14T19:50:38.262Z,29.50
2022-09-14T19:53:08.729Z,29.70
2022-09-14T19:55:40.667Z,29.60
2022-09-14T19:58:13.247Z,29.60
2022-09-14T20:00:43.377Z,29.40
2022-09-14T20:03:20.907Z,29.40
2022-09-14T20:05:59.852Z,29.40
2022-09-14T20:08:30.609Z,29.60
2022-09-14T20:11:17.744Z,29.40
2022-09-14T20:13:53.364Z,29.30
2022-09-14T20:16:38.879Z,29.40
2022-09-14T20:19:13.089Z,29.30
2022-09-14T20:21:46.549Z,29.20
2022-09-14T20:24:27.444Z,29.20
2022-09-14T20:27:01.494Z,29.50
2022-09-14T20:29:35.888Z,29.70
2022-09-14T20:32:08.665Z,29.80
2022-09-14T20:34:40.136Z,29.80
2022-09-14T20:37:10.942Z,29.70
2022-09-14T20:39:42.985Z,29.60
2022-09-14T20:42:14.016Z,29.80
2022-09-14T20:44:44.333Z,29.60
2022-09-14T20:47:18.197Z,29.40
2022-09-14T20:49:52.102Z,29.50
2022-09-14T20:52:22.699Z,29.40
2022-09-14T20:54:53.322Z,29.40
2022-09-14T20:57:25.247Z,29.40
2022-09-14T20:59:55.733Z,29.60
2022-09-14T21:02:30.283Z,29.70
2022-09-14T21:05:03.322Z,29.70
2022-09-14T21:07:34.704Z,29.50
2022-09-14T21:10:08.194Z,29.50
2022-09-14T21:12:39.709Z,29.60
2022-09-14T21:15:10.415Z,29.70
2022-09-14T21:17:41.788Z,29.70
2022-09-14T21:20:14.545Z,29.50
2022-09-14T21:22:47.226Z,29.40
2022-09-14T21:25:17.325Z,29.40
2022-09-14T21:27:48.163Z,29.40
2022-09-14T21:30:18.060Z,29.50
2022-09-14T21:32:53.569Z,29.60
2022-09-14T21:35:23.362Z,29.70
2022-09-14T21:37:56.936Z,29.70
2022-09-14T21:40:32.142Z,29.70
2022-09-14T21:43:02.291Z,29.80
2022-09-14T21:45:33.891Z,30.00
2022-09-14T21:48:11.876Z,30.10
2022-09-14T21:50:45.280Z,30.30
2022-09-14T21:53:17.691Z,30.20
2022-09-14T21:55:49.505Z,30.30
2022-09-14T21:58:19.614Z,30.30
2022-09-14T22:01:03.232Z,30.10
2022-09-14T22:03:33.630Z,30.10
2022-09-14T22:06:06.174Z,30.10
2022-09-14T22:08:40.371Z,30.20
2022-09-14T22:11:18.213Z,30.10
2022-09-14T22:14:02.722Z,30.00
2022-09-14T22:16:37.289Z,30.00
2022-09-14T22:19:12.634Z,30.00
2022-09-14T22:21:43.844Z,30.00
2022-09-14T22:24:20.031Z,30.10
2022-09-14T22:26:51.731Z,30.10
2022-09-14T22:29:23.122Z,29.90
2022-09-14T22:31:55.465Z,29.80
2022-09-14T22:34:27.613Z,29.70
2022-09-14T22:36:58.020Z,29.70
2022-09-14T22:39:28.973Z,29.70
2022-09-14T22:42:00.737Z,29.80
2022-09-14T22:44:31.902Z,29.80
2022-09-14T22:47:03.452Z,29.80
2022-09-14T22:49:34.938Z,29.70
2022-09-14T22:52:05.499Z,29.70
2022-09-14T22:54:35.907Z,29.70
2022-09-14T22:57:05.962Z,29.60
2022-09-14T22:59:36.848Z,29.60
2022-09-14T23:02:08.826Z,29.60
2022-09-14T23:04:39.040Z,29.60
2022-09-14T23:07:09.490Z,29.50
2022-09-14T23:09:40.754Z,29.50
2022-09-14T23:12:10.739Z,29.50
2022-09-14T23:14:44.611Z,29.50
2022-09-14T23:17:16.283Z,29.40
2022-09-14T23:19:46.150Z,29.50
2022-09-14T23:22:18.606Z,29.40
2022-09-14T23:24:49.012Z,29.30
2022-09-14T23:27:19.756Z,29.30
2022-09-14T23:29:49.515Z,29.30
2022-09-14T23:32:19.665Z,29.20
2022-09-14T23:34:50.538Z,29.30
2022-09-14T23:37:20.371Z,29.30
2022-09-14T23:39:51.018Z,29.30
2022-09-14T23:42:21.652Z,29.30
2022-09-14T23:44:53.853Z,29.10
2022-09-14T23:47:26.806Z,29.00
2022-09-14T23:49:56.626Z,29.00
2022-09-14T23:52:26.154Z,29.00
2022-09-14T23:54:58.964Z,29.00
2022-09-14T23:57:30.973Z,29.00
